Time;durP1;ratioP1;P1;durP2;ratioP2;P2;SDS_P1;SDS_P2;PMS_P1;PMS_P2;Temp;Humidity;BMP_temperature;BMP_pressure;BME280_temperature;BME280_humidity;BME280_pressure;Samples;Min_cycle;Max_cycle;Signal;HPM_P1;HPM_P2
2022/01/19 00:14:12;;;;;;;23.05;8.88;;;;;;;2.51;95.86;101648.84;714335;1167;115112;-74
2022/01/19 07:45:09;;;;;;;82.50;32.80;;;;;;;4.42;100.00;101103.19;715436;1167;52109;-78
2022/01/19 08:00:12;;;;;;;106.45;33.30;;;;;;;4.40;100.00;101076.42;714496;1204;26262;-75
2022/01/19 08:15:15;;;;;;;84.70;29.10;;;;;;;4.39;100.00;101064.34;714504;1206;27192;-78
2022/01/19 08:30:17;;;;;;;62.50;23.53;;;;;;;4.47;100.00;101036.25;714882;1200;23262;-76
2022/01/19 08:45:19;;;;;;;34.43;17.33;;;;;;;4.41;100.00;101026.15;714836;1200;23137;-77
2022/01/19 09:00:22;;;;;;;28.30;13.70;;;;;;;4.44;100.00;101018.19;714809;1200;24750;-77
2022/01/19 09:15:25;;;;;;;31.38;17.15;;;;;;;4.58;100.00;100998.45;714940;1200;23151;-79
2022/01/19 09:30:28;;;;;;;27.88;15.60;;;;;;;4.62;100.00;100976.61;714923;1205;23154;-77
2022/01/19 09:45:30;;;;;;;30.03;14.97;;;;;;;4.60;100.00;100968.87;714714;1200;23129;-78
2022/01/19 10:00:33;;;;;;;29.30;14.80;;;;;;;4.48;100.00;100964.32;715307;1203;23157;-80
2022/01/19 10:31:01;;;;;;;53.83;24.77;;;;;;;4.54;100.00;100921.58;714600;1174;115372;-82
2022/01/19 10:46:15;;;;;;;50.80;22.58;;;;;;;4.56;100.00;100891.16;714548;1171;116249;-75
2022/01/19 11:01:36;;;;;;;65.87;34.47;;;;;;;4.80;100.00;100879.45;714944;1174;115526;-78
2022/01/19 11:16:40;;;;;;;58.47;25.03;;;;;;;4.62;100.00;100891.67;714643;1174;115842;-77
2022/01/19 11:31:43;;;;;;;50.00;24.40;;;;;;;4.72;100.00;100871.21;714644;1174;116363;-77
2022/01/19 11:46:49;;;;;;;40.68;20.45;;;;;;;4.94;100.00;100851.86;714216;1174;114197;-79
2022/01/19 12:01:52;;;;;;;43.97;22.83;;;;;;;4.70;100.00;100820.23;714502;1174;115768;-72
2022/01/19 12:17:15;;;;;;;39.17;20.07;;;;;;;4.72;100.00;100787.20;713968;1174;115866;-71
2022/01/19 12:32:17;;;;;;;44.05;21.20;;;;;;;4.60;100.00;100739.34;714557;1174;115755;-72
2022/01/19 12:47:26;;;;;;;53.43;25.80;;;;;;;4.62;100.00;100706.33;714521;1174;115595;-72
2022/01/19 13:02:30;;;;;;;51.53;26.20;;;;;;;4.61;100.00;100695.08;714167;1174;115702;-73
2022/01/19 13:17:43;;;;;;;54.30;26.70;;;;;;;4.67;100.00;100660.09;714216;1174;115465;-73
2022/01/19 13:32:46;;;;;;;115.48;43.75;;;;;;;4.87;100.00;100600.92;714132;1174;115724;-80
2022/01/19 13:48:20;;;;;;;56.03;26.30;;;;;;;4.91;100.00;100571.20;714385;1174;115595;-75
2022/01/19 14:03:24;;;;;;;62.03;27.57;;;;;;;4.47;100.00;100547.77;714464;1174;115341;-74
2022/01/19 14:18:26;;;;;;;65.43;29.70;;;;;;;3.99;100.00;100541.86;714251;1174;115466;-75
2022/01/19 14:33:29;;;;;;;82.55;33.45;;;;;;;3.87;100.00;100511.39;714184;1174;115476;-74
2022/01/19 14:48:44;;;;;;;74.63;36.03;;;;;;;3.81;100.00;100508.24;714135;1174;115259;-74
2022/01/19 15:03:47;;;;;;;80.60;36.50;;;;;;;3.81;100.00;100492.67;714437;1174;114262;-75
2022/01/19 15:18:50;;;;;;;92.40;36.50;;;;;;;3.83;100.00;100484.80;714297;1174;115771;-75
2022/01/19 15:33:53;;;;;;;66.83;28.90;;;;;;;3.78;100.00;100456.49;714630;1174;115496;-77
2022/01/19 15:48:56;;;;;;;52.80;23.90;;;;;;;3.73;100.00;100416.16;714252;1174;115449;-76
2022/01/19 16:03:58;;;;;;;73.78;29.23;;;;;;;3.76;100.00;100383.09;714062;1173;114425;-75
2022/01/19 16:19:01;;;;;;;94.13;35.00;;;;;;;3.68;100.00;100353.31;714318;1174;114822;-75
2022/01/19 16:34:11;;;;;;;159.40;88.05;;;;;;;3.79;100.00;100304.23;714492;1174;115502;-74
2022/01/19 16:49:20;;;;;;;62.55;29.25;;;;;;;3.87;100.00;100262.22;714189;1173;115944;-76
2022/01/19 17:04:23;;;;;;;69.37;29.03;;;;;;;3.93;100.00;100228.97;714172;1174;114885;-75
2022/01/19 17:19:27;;;;;;;68.60;31.90;;;;;;;4.13;100.00;100234.67;714148;1174;115846;-76
2022/01/19 17:34:31;;;;;;;68.20;28.58;;;;;;;4.22;100.00;100158.79;714671;1174;115039;-75
2022/01/19 18:04:45;;;;;;;72.33;30.67;;;;;;;4.34;100.00;100094.84;714550;1174;114652;-75
2022/01/19 18:19:49;;;;;;;78.48;34.45;;;;;;;4.32;100.00;100070.75;716338;1174;115762;-75
2022/01/19 18:34:51;;;;;;;74.67;32.40;;;;;;;4.34;100.00;100042.90;714042;1174;115634;-75
2022/01/19 18:49:53;;;;;;;78.70;33.47;;;;;;;4.27;100.00;99982.74;713956;1174;114982;-75
2022/01/19 19:04:56;;;;;;;69.87;30.77;;;;;;;4.03;100.00;99935.88;714336;1174;115310;-75
2022/01/19 19:19:59;;;;;;;68.75;27.95;;;;;;;3.89;100.00;99879.68;714375;1173;114659;-75
2022/01/19 19:35:02;;;;;;;70.60;29.03;;;;;;;3.82;100.00;99842.94;714623;1174;115445;-76
2022/01/19 19:50:09;;;;;;;69.80;28.00;;;;;;;3.88;100.00;99809.72;714408;1173;115709;-76
2022/01/19 20:05:11;;;;;;;63.35;26.50;;;;;;;3.74;100.00;99767.38;714070;1174;114068;-76
2022/01/19 20:20:14;;;;;;;55.70;24.95;;;;;;;3.66;100.00;99722.97;714128;1174;115320;-75
2022/01/19 20:35:17;;;;;;;60.77;25.80;;;;;;;3.50;100.00;99679.09;714127;1174;114591;-75
2022/01/19 20:50:19;;;;;;;54.25;24.53;;;;;;;3.56;100.00;99641.52;713861;1174;115494;-75
2022/01/19 21:05:23;;;;;;;59.93;24.10;;;;;;;3.57;100.00;99633.63;714565;1174;115594;-74
2022/01/19 21:20:27;;;;;;;66.50;26.98;;;;;;;3.55;100.00;99614.77;714691;1174;115259;-74
2022/01/19 21:35:30;;;;;;;56.25;27.13;;;;;;;3.75;100.00;99571.86;718899;1166;116029;-75
2022/01/19 21:50:33;;;;;;;50.35;23.35;;;;;;;3.80;100.00;99554.20;714398;1174;115080;-73
2022/01/19 22:05:35;;;;;;;44.73;22.93;;;;;;;3.83;100.00;99535.81;714159;1174;114168;-74
2022/01/19 22:20:38;;;;;;;42.38;22.15;;;;;;;3.83;100.00;99509.05;714307;1173;115603;-73
2022/01/19 22:35:40;;;;;;;36.85;19.28;;;;;;;3.82;100.00;99463.27;714388;1174;115503;-74
2022/01/19 22:50:42;;;;;;;86.70;36.15;;;;;;;3.94;100.00;99427.81;714490;1174;114871;-74
2022/01/19 23:05:46;;;;;;;36.93;18.93;;;;;;;4.02;100.00;99396.09;714572;1174;115541;-74
2022/01/19 23:20:50;;;;;;;31.33;15.83;;;;;;;4.07;100.00;99350.67;714960;1174;114559;-73
2022/01/19 23:36:00;;;;;;;26.73;14.85;;;;;;;4.35;100.00;99314.80;714066;1174;115563;-73
2022/01/19 23:51:02;;;;;;;34.83;19.57;;;;;;;4.38;100.00;99265.25;714642;1174;113973;-73
